Time;durP1;ratioP1;P1;durP2;ratioP2;P2;SDS_P1;SDS_P2;PMS_P1;PMS_P2;Temp;Humidity;BMP_temperature;BMP_pressure;BME280_temperature;BME280_humidity;BME280_pressure;Samples;Min_cycle;Max_cycle;Signal;HPM_P1;HPM_P2
2021/05/28 00:01:19;;;;;;;1.67;0.30;;;;;;;;;;5006036;28;20034;-72
2021/05/28 00:03:47;;;;;;;2.42;0.30;;;;;;;;;;5008839;28;20147;-72
2021/05/28 00:06:14;;;;;;;0.70;0.30;;;;;;;;;;5031022;28;20410;-72
2021/05/28 00:08:41;;;;;;;1.90;0.47;;;;;;;;;;5012369;28;20364;-72
2021/05/28 00:11:09;;;;;;;0.50;0.20;;;;;;;;;;5010674;28;20111;-71
2021/05/28 00:13:36;;;;;;;1.85;0.30;;;;;;;;;;5009973;28;20037;-71
2021/05/28 00:16:03;;;;;;;2.50;0.63;;;;;;;;;;5008943;28;20045;-72
2021/05/28 00:18:31;;;;;;;1.48;0.57;;;;;;;;;;4996625;28;20022;-72
2021/05/28 00:20:58;;;;;;;1.80;0.30;;;;;;;;;;4993067;28;20026;-72
2021/05/28 00:23:25;;;;;;;1.98;0.20;;;;;;;;;;5002639;28;20467;-71
2021/05/28 00:25:52;;;;;;;1.27;0.10;;;;;;;;;;5012448;28;20026;-72
2021/05/28 00:28:19;;;;;;;1.63;0.20;;;;;;;;;;5004955;28;20022;-71
2021/05/28 00:30:47;;;;;;;2.47;0.15;;;;;;;;;;4993024;28;20022;-72
2021/05/28 00:33:14;;;;;;;3.13;0.20;;;;;;;;;;5005244;28;20104;-72
2021/05/28 00:35:41;;;;;;;0.70;0.15;;;;;;;;;;5012218;28;20030;-72
2021/05/28 00:38:08;;;;;;;0.60;0.20;;;;;;;;;;5009502;28;20034;-72
2021/05/28 00:40:35;;;;;;;2.08;0.65;;;;;;;;;;5012674;28;20022;-71
2021/05/28 00:43:03;;;;;;;0.52;0.05;;;;;;;;;;5010425;28;20067;-72
2021/05/28 00:45:30;;;;;;;1.02;0.15;;;;;;;;;;5010153;28;20052;-71
2021/05/28 00:47:57;;;;;;;1.30;0.40;;;;;;;;;;5002858;28;20025;-72
2021/05/28 00:50:29;;;;;;;1.63;0.30;;;;;;;;;;4994210;28;20042;-72
2021/05/28 00:52:57;;;;;;;0.35;0.10;;;;;;;;;;5002865;28;20083;-72
2021/05/28 00:55:28;;;;;;;0.75;0.20;;;;;;;;;;5012157;28;20475;-72
2021/05/28 00:57:55;;;;;;;0.45;0.13;;;;;;;;;;5008188;28;20084;-72
2021/05/28 01:00:25;;;;;;;0.40;0.25;;;;;;;;;;5012494;28;20029;-72
2021/05/28 01:02:52;;;;;;;0.65;0.20;;;;;;;;;;5009846;28;20021;-71
2021/05/28 01:05:19;;;;;;;1.30;0.10;;;;;;;;;;5011856;28;20018;-72
2021/05/28 01:07:46;;;;;;;1.25;0.28;;;;;;;;;;5009969;28;20022;-72
2021/05/28 01:10:14;;;;;;;2.50;0.20;;;;;;;;;;5011721;28;20494;-72
2021/05/28 01:12:42;;;;;;;0.73;0.17;;;;;;;;;;5006067;28;20513;-72
2021/05/28 01:15:10;;;;;;;1.55;0.57;;;;;;;;;;5009623;28;20498;-73
2021/05/28 01:17:37;;;;;;;1.55;0.10;;;;;;;;;;4998950;28;20190;-71
2021/05/28 01:20:08;;;;;;;0.85;0.10;;;;;;;;;;4995606;28;20476;-71
2021/05/28 01:22:36;;;;;;;1.30;0.20;;;;;;;;;;5001691;28;20029;-72
2021/05/28 01:25:04;;;;;;;0.45;0.10;;;;;;;;;;5011224;28;20034;-71
2021/05/28 01:27:31;;;;;;;0.50;0.10;;;;;;;;;;5013525;28;20028;-71
2021/05/28 01:29:58;;;;;;;4.57;0.20;;;;;;;;;;5015850;28;20022;-72
2021/05/28 01:32:25;;;;;;;2.60;0.20;;;;;;;;;;5013197;28;20116;-72
2021/05/28 01:34:53;;;;;;;1.15;0.28;;;;;;;;;;5008960;28;20447;-72
2021/05/28 01:37:20;;;;;;;1.40;0.20;;;;;;;;;;5012971;28;20033;-72
2021/05/28 01:39:52;;;;;;;1.75;0.30;;;;;;;;;;5015663;28;20022;-72
2021/05/28 01:42:20;;;;;;;0.93;0.17;;;;;;;;;;5013812;28;20080;-72
2021/05/28 01:44:47;;;;;;;0.60;0.10;;;;;;;;;;5015123;28;20089;-72
2021/05/28 01:47:15;;;;;;;2.78;0.57;;;;;;;;;;5010607;28;20046;-71
2021/05/28 01:49:43;;;;;;;2.35;0.40;;;;;;;;;;5015128;28;20061;-71
2021/05/28 01:52:11;;;;;;;3.88;0.22;;;;;;;;;;5013392;28;20546;-71
2021/05/28 01:54:39;;;;;;;1.35;0.30;;;;;;;;;;5014775;28;20596;-71
2021/05/28 01:57:08;;;;;;;0.93;0.20;;;;;;;;;;5012658;28;20501;-71
2021/05/28 01:59:38;;;;;;;2.40;0.40;;;;;;;;;;5013524;28;20030;-72
2021/05/28 02:02:06;;;;;;;1.00;0.20;;;;;;;;;;5013138;28;20022;-71
2021/05/28 02:04:33;;;;;;;1.45;0.20;;;;;;;;;;5015004;28;20352;-72
2021/05/28 02:07:00;;;;;;;2.97;0.40;;;;;;;;;;5011843;28;20042;-71
2021/05/28 02:09:27;;;;;;;3.35;0.50;;;;;;;;;;5015052;28;20450;-71
2021/05/28 02:11:55;;;;;;;2.22;0.22;;;;;;;;;;5011510;28;20025;-72
2021/05/28 02:14:23;;;;;;;2.20;0.20;;;;;;;;;;4994451;28;20138;-71
2021/05/28 02:16:51;;;;;;;1.38;0.22;;;;;;;;;;5011208;28;20034;-72
2021/05/28 02:19:20;;;;;;;4.25;0.40;;;;;;;;;;5010202;28;20091;-71
2021/05/28 02:21:47;;;;;;;3.22;0.55;;;;;;;;;;5010786;28;20165;-71
2021/05/28 02:24:15;;;;;;;6.07;0.47;;;;;;;;;;5001912;28;20427;-71
2021/05/28 02:26:46;;;;;;;3.17;0.57;;;;;;;;;;4994750;28;20070;-71
2021/05/28 02:29:13;;;;;;;2.10;0.30;;;;;;;;;;5014370;28;20022;-71
2021/05/28 02:31:40;;;;;;;1.60;0.20;;;;;;;;;;5007216;28;20475;-72
2021/05/28 02:34:08;;;;;;;2.90;0.30;;;;;;;;;;5014028;28;20030;-72
2021/05/28 02:36:35;;;;;;;2.88;0.30;;;;;;;;;;5011988;28;20034;-71
2021/05/28 02:39:02;;;;;;;2.80;0.30;;;;;;;;;;5005495;28;20348;-71
2021/05/28 02:41:29;;;;;;;4.07;0.50;;;;;;;;;;5009823;28;20498;-71
2021/05/28 02:43:56;;;;;;;3.45;0.50;;;;;;;;;;5013503;28;20045;-72
2021/05/28 02:46:24;;;;;;;2.78;0.20;;;;;;;;;;5014073;28;20359;-72
2021/05/28 02:48:51;;;;;;;0.43;0.20;;;;;;;;;;5010224;28;20021;-72
2021/05/28 02:51:20;;;;;;;2.53;0.30;;;;;;;;;;5013940;28;20105;-71
2021/05/28 02:53:47;;;;;;;1.77;0.63;;;;;;;;;;5008918;28;20032;-72
2021/05/28 02:56:14;;;;;;;1.80;0.20;;;;;;;;;;5012310;28;20466;-71
2021/05/28 02:58:41;;;;;;;2.45;0.20;;;;;;;;;;5011601;28;20033;-71
2021/05/28 03:01:09;;;;;;;4.70;0.45;;;;;;;;;;5012663;28;20037;-71
2021/05/28 03:03:36;;;;;;;6.30;0.40;;;;;;;;;;5011584;28;20033;-71
2021/05/28 03:06:03;;;;;;;0.95;0.28;;;;;;;;;;5012973;28;20061;-71
2021/05/28 03:08:30;;;;;;;4.30;0.60;;;;;;;;;;5010396;28;20030;-72
2021/05/28 03:10:58;;;;;;;1.33;0.28;;;;;;;;;;5013800;28;20022;-72
2021/05/28 03:13:25;;;;;;;3.25;0.28;;;;;;;;;;5012080;28;20499;-71
2021/05/28 03:15:52;;;;;;;1.85;0.68;;;;;;;;;;5009811;28;20054;-72
2021/05/28 03:18:21;;;;;;;2.58;0.35;;;;;;;;;;5009932;28;20041;-72
2021/05/28 03:21:18;;;;;;;3.38;0.35;;;;;;;;;;5013281;28;20018;-72
2021/05/28 03:23:45;;;;;;;5.30;0.63;;;;;;;;;;5010732;28;20034;-71
2021/05/28 03:26:12;;;;;;;4.53;0.80;;;;;;;;;;5009612;28;20022;-72
2021/05/28 03:28:39;;;;;;;5.28;0.68;;;;;;;;;;5009947;28;20025;-72
2021/05/28 03:31:06;;;;;;;6.18;1.00;;;;;;;;;;5011446;28;20022;-72
2021/05/28 03:33:34;;;;;;;1.58;0.35;;;;;;;;;;5006530;28;20351;-72
2021/05/28 03:36:01;;;;;;;1.15;0.43;;;;;;;;;;5005255;28;20613;-72
2021/05/28 03:38:29;;;;;;;2.35;0.40;;;;;;;;;;5007913;28;20045;-72
2021/05/28 03:40:56;;;;;;;2.60;0.22;;;;;;;;;;5013307;28;20021;-72
2021/05/28 03:43:23;;;;;;;5.05;0.70;;;;;;;;;;5010959;28;20048;-72
2021/05/28 03:45:50;;;;;;;2.80;0.50;;;;;;;;;;5012070;28;20029;-71
2021/05/28 03:48:17;;;;;;;3.67;0.93;;;;;;;;;;5010077;28;20554;-72
2021/05/28 03:50:45;;;;;;;2.85;0.40;;;;;;;;;;5013168;28;20029;-72
2021/05/28 03:53:12;;;;;;;3.10;0.43;;;;;;;;;;5008021;28;20026;-72
2021/05/28 03:55:39;;;;;;;1.92;0.52;;;;;;;;;;5012789;28;20049;-71
2021/05/28 03:58:06;;;;;;;1.25;0.30;;;;;;;;;;5010288;28;20108;-72
2021/05/28 04:00:33;;;;;;;3.28;0.88;;;;;;;;;;5013138;28;20045;-72
2021/05/28 04:03:01;;;;;;;5.05;0.88;;;;;;;;;;5009348;28;20077;-72
2021/05/28 04:05:28;;;;;;;3.58;0.32;;;;;;;;;;5012734;28;20018;-71
2021/05/28 04:07:58;;;;;;;4.78;0.90;;;;;;;;;;5010994;28;20026;-70
2021/05/28 04:10:25;;;;;;;3.58;0.30;;;;;;;;;;5012398;28;20018;-73
2021/05/28 04:12:54;;;;;;;2.08;0.30;;;;;;;;;;5009210;28;20098;-71
2021/05/28 04:15:21;;;;;;;3.65;0.75;;;;;;;;;;5011009;28;20029;-71
2021/05/28 04:17:48;;;;;;;3.08;0.40;;;;;;;;;;5011956;28;20097;-71
2021/05/28 04:20:16;;;;;;;3.92;0.63;;;;;;;;;;5012625;28;20026;-73
2021/05/28 04:22:43;;;;;;;3.80;0.57;;;;;;;;;;5011945;28;20017;-71
2021/05/28 04:25:11;;;;;;;6.78;0.70;;;;;;;;;;5012540;28;20037;-71
2021/05/28 04:27:38;;;;;;;5.43;0.82;;;;;;;;;;5004117;28;20021;-73
2021/05/28 04:30:06;;;;;;;4.15;0.50;;;;;;;;;;5007988;28;20029;-72
2021/05/28 04:32:33;;;;;;;5.88;0.47;;;;;;;;;;5008107;28;20084;-71
2021/05/28 04:35:00;;;;;;;4.00;0.70;;;;;;;;;;4992865;28;20034;-72
2021/05/28 04:37:27;;;;;;;3.38;0.50;;;;;;;;;;4998521;28;20490;-72
2021/05/28 04:39:58;;;;;;;4.78;0.57;;;;;;;;;;5008971;28;20046;-72
2021/05/28 04:42:25;;;;;;;2.03;0.40;;;;;;;;;;5009951;28;20034;-72
2021/05/28 04:44:52;;;;;;;4.97;0.90;;;;;;;;;;5010922;28;20061;-71
2021/05/28 04:47:19;;;;;;;6.68;0.55;;;;;;;;;;5010229;28;20030;-71
2021/05/28 04:49:46;;;;;;;1.73;0.28;;;;;;;;;;5012690;28;20026;-72
2021/05/28 04:52:13;;;;;;;1.58;0.20;;;;;;;;;;5009918;28;20132;-73
2021/05/28 04:54:40;;;;;;;5.82;0.68;;;;;;;;;;5011954;28;20042;-71
2021/05/28 04:57:07;;;;;;;2.05;0.50;;;;;;;;;;5012467;28;20026;-71
2021/05/28 04:59:35;;;;;;;1.67;0.40;;;;;;;;;;5016320;28;20057;-72
2021/05/28 05:02:02;;;;;;;4.18;0.47;;;;;;;;;;5013685;28;20475;-72
2021/05/28 05:04:29;;;;;;;4.68;0.65;;;;;;;;;;5016389;28;20025;-72
2021/05/28 05:06:56;;;;;;;3.03;0.52;;;;;;;;;;5014075;28;20022;-72
2021/05/28 05:09:23;;;;;;;4.35;0.65;;;;;;;;;;5016202;28;20482;-72
2021/05/28 05:11:50;;;;;;;5.90;0.95;;;;;;;;;;5013569;28;20026;-71
2021/05/28 05:14:17;;;;;;;2.50;0.50;;;;;;;;;;5012458;28;20108;-71
2021/05/28 05:16:44;;;;;;;3.70;0.68;;;;;;;;;;5010963;28;20033;-72
2021/05/28 05:19:12;;;;;;;5.10;0.55;;;;;;;;;;5016041;28;20025;-72
2021/05/28 05:21:39;;;;;;;2.70;0.90;;;;;;;;;;5005825;28;20045;-72
2021/05/28 05:24:08;;;;;;;6.13;0.70;;;;;;;;;;4997844;28;20046;-72
2021/05/28 05:26:35;;;;;;;3.58;0.85;;;;;;;;;;4995033;28;20022;-71
2021/05/28 05:29:03;;;;;;;4.18;0.70;;;;;;;;;;4994307;28;20030;-72
2021/05/28 05:31:30;;;;;;;2.53;0.55;;;;;;;;;;4994896;28;20025;-72
2021/05/28 05:33:58;;;;;;;3.42;0.55;;;;;;;;;;5006386;28;20174;-71
2021/05/28 05:36:25;;;;;;;2.42;0.60;;;;;;;;;;5013935;28;20084;-72
2021/05/28 05:38:53;;;;;;;6.43;0.75;;;;;;;;;;5012499;28;20033;-72
2021/05/28 05:41:20;;;;;;;3.50;0.40;;;;;;;;;;5015330;28;20057;-73
2021/05/28 05:43:47;;;;;;;7.22;0.55;;;;;;;;;;5011924;28;20046;-71
2021/05/28 05:46:14;;;;;;;5.85;0.52;;;;;;;;;;5015446;28;20103;-72
2021/05/28 05:48:41;;;;;;;6.10;0.60;;;;;;;;;;5011434;28;20030;-71
2021/05/28 05:51:08;;;;;;;4.30;0.40;;;;;;;;;;5013688;28;20026;-71
2021/05/28 05:53:35;;;;;;;6.50;0.90;;;;;;;;;;5009109;28;20061;-72
2021/05/28 05:56:02;;;;;;;3.33;0.40;;;;;;;;;;5013751;28;20118;-72
2021/05/28 05:58:30;;;;;;;5.63;0.60;;;;;;;;;;5012579;28;20018;-71
2021/05/28 06:00:57;;;;;;;1.60;0.35;;;;;;;;;;5015296;28;20018;-72
2021/05/28 06:03:24;;;;;;;3.15;0.30;;;;;;;;;;5012935;28;20029;-71
2021/05/28 06:05:51;;;;;;;3.10;0.65;;;;;;;;;;5015130;28;20026;-72
2021/05/28 06:08:18;;;;;;;3.42;1.05;;;;;;;;;;5011521;28;20025;-72
2021/05/28 06:10:45;;;;;;;3.70;0.95;;;;;;;;;;5015013;28;20474;-73
2021/05/28 06:13:12;;;;;;;5.30;0.90;;;;;;;;;;5012723;28;20417;-72
2021/05/28 06:15:39;;;;;;;4.03;0.45;;;;;;;;;;5012560;28;20088;-72
2021/05/28 06:18:07;;;;;;;5.25;0.40;;;;;;;;;;5009884;28;20022;-71
2021/05/28 06:20:34;;;;;;;5.80;0.90;;;;;;;;;;4994850;28;20028;-71
2021/05/28 06:23:01;;;;;;;4.32;0.70;;;;;;;;;;5005262;28;20116;-72
2021/05/28 06:25:28;;;;;;;4.80;0.57;;;;;;;;;;5014409;28;20026;-72
2021/05/28 06:27:56;;;;;;;4.15;0.50;;;;;;;;;;5012223;28;20426;-71
2021/05/28 06:30:23;;;;;;;5.60;1.17;;;;;;;;;;5012750;28;20072;-71
2021/05/28 06:32:50;;;;;;;3.38;0.57;;;;;;;;;;4999578;28;20042;-71
2021/05/28 06:35:17;;;;;;;2.33;0.60;;;;;;;;;;4994938;28;20091;-72
2021/05/28 06:37:44;;;;;;;6.22;0.80;;;;;;;;;;5003114;28;20018;-71
2021/05/28 06:40:12;;;;;;;5.53;1.00;;;;;;;;;;5011192;28;20111;-72
2021/05/28 06:42:42;;;;;;;3.60;1.02;;;;;;;;;;5007813;28;20149;-72
2021/05/28 06:45:10;;;;;;;3.70;0.88;;;;;;;;;;5012602;28;20045;-71
2021/05/28 06:47:37;;;;;;;3.83;0.88;;;;;;;;;;5009577;28;20359;-72
2021/05/28 06:50:04;;;;;;;3.00;0.57;;;;;;;;;;5005741;28;20026;-71
2021/05/28 06:52:31;;;;;;;7.45;0.82;;;;;;;;;;5009178;28;20022;-71
2021/05/28 06:54:58;;;;;;;3.90;0.77;;;;;;;;;;5014325;28;20034;-71
2021/05/28 06:57:25;;;;;;;5.32;0.82;;;;;;;;;;5005702;28;20025;-71
2021/05/28 06:59:53;;;;;;;5.22;0.93;;;;;;;;;;5011579;28;20471;-72
2021/05/28 07:02:20;;;;;;;3.15;0.70;;;;;;;;;;5008673;28;20109;-71
2021/05/28 07:04:48;;;;;;;5.97;1.02;;;;;;;;;;5009755;28;20663;-71
2021/05/28 07:07:15;;;;;;;3.70;0.50;;;;;;;;;;5008724;28;20076;-71
2021/05/28 07:09:44;;;;;;;2.78;0.40;;;;;;;;;;5016841;28;20057;-72
2021/05/28 07:12:11;;;;;;;2.05;0.50;;;;;;;;;;4999822;28;20026;-71
2021/05/28 07:14:38;;;;;;;6.30;1.17;;;;;;;;;;5010507;28;20029;-71
2021/05/28 07:17:06;;;;;;;4.38;0.70;;;;;;;;;;5005549;28;20026;-72
2021/05/28 07:19:33;;;;;;;3.35;0.52;;;;;;;;;;5006733;28;20018;-71
2021/05/28 07:22:00;;;;;;;5.20;0.73;;;;;;;;;;5007996;28;20048;-71
2021/05/28 07:24:28;;;;;;;2.83;0.50;;;;;;;;;;5008445;28;20022;-71
2021/05/28 07:26:55;;;;;;;8.57;0.85;;;;;;;;;;5004885;28;20031;-72
2021/05/28 07:29:22;;;;;;;6.80;1.23;;;;;;;;;;5008046;28;20060;-71
2021/05/28 07:31:50;;;;;;;3.63;1.35;;;;;;;;;;5007579;28;20108;-72
2021/05/28 07:34:17;;;;;;;4.50;0.65;;;;;;;;;;5007233;28;20164;-71
2021/05/28 07:36:44;;;;;;;3.72;0.65;;;;;;;;;;5005776;28;20038;-71
2021/05/28 07:39:11;;;;;;;3.05;0.68;;;;;;;;;;5009536;28;20022;-71
2021/05/28 07:41:39;;;;;;;3.53;0.80;;;;;;;;;;5005700;28;20410;-71
2021/05/28 07:44:06;;;;;;;1.85;0.50;;;;;;;;;;5009770;28;20422;-72
2021/05/28 07:46:40;;;;;;;4.80;0.80;;;;;;;;;;5009702;28;20030;-70
2021/05/28 07:49:07;;;;;;;14.05;3.25;;;;;;;;;;5008739;28;20014;-71
2021/05/28 07:51:35;;;;;;;5.13;1.38;;;;;;;;;;5014888;28;20363;-70
2021/05/28 07:54:03;;;;;;;4.72;0.80;;;;;;;;;;5012060;28;20113;-72
2021/05/28 07:56:30;;;;;;;3.72;0.70;;;;;;;;;;5011463;28;20034;-71
2021/05/28 07:58:57;;;;;;;4.53;0.80;;;;;;;;;;5009465;28;20434;-71
2021/05/28 08:01:24;;;;;;;3.22;0.60;;;;;;;;;;5010795;28;20018;-71
2021/05/28 08:03:51;;;;;;;4.35;0.90;;;;;;;;;;5011462;28;20030;-71
2021/05/28 08:06:18;;;;;;;2.67;0.93;;;;;;;;;;5010926;28;20054;-71
2021/05/28 08:08:46;;;;;;;6.47;0.60;;;;;;;;;;5010634;28;20105;-72
2021/05/28 08:11:13;;;;;;;3.60;0.73;;;;;;;;;;4999452;28;20033;-71
2021/05/28 08:13:40;;;;;;;2.58;0.65;;;;;;;;;;5005371;28;20062;-71
2021/05/28 08:16:08;;;;;;;2.60;0.75;;;;;;;;;;5009140;28;20495;-70
2021/05/28 08:18:35;;;;;;;5.93;0.80;;;;;;;;;;5001084;28;20076;-73
2021/05/28 08:21:03;;;;;;;3.97;1.00;;;;;;;;;;5007852;28;20034;-71
2021/05/28 08:23:31;;;;;;;1.88;0.47;;;;;;;;;;5007163;28;20100;-71
2021/05/28 08:25:58;;;;;;;1.45;0.40;;;;;;;;;;5009139;28;20022;-72
2021/05/28 08:28:25;;;;;;;2.80;1.02;;;;;;;;;;5006756;28;20069;-70
2021/05/28 08:30:52;;;;;;;5.50;1.40;;;;;;;;;;5009211;28;20017;-70
2021/05/28 08:33:19;;;;;;;5.03;1.05;;;;;;;;;;5008544;28;20054;-71
2021/05/28 08:35:46;;;;;;;4.47;1.00;;;;;;;;;;5010857;28;20038;-71
2021/05/28 08:38:13;;;;;;;3.03;0.90;;;;;;;;;;5009348;28;20052;-71
2021/05/28 08:40:40;;;;;;;2.83;0.93;;;;;;;;;;5012366;28;20032;-72
2021/05/28 08:43:08;;;;;;;4.95;1.10;;;;;;;;;;5003408;28;20073;-71
2021/05/28 08:45:36;;;;;;;4.32;1.90;;;;;;;;;;5009179;28;20050;-71
2021/05/28 08:48:07;;;;;;;6.80;3.35;;;;;;;;;;5010429;28;20033;-71
2021/05/28 08:50:35;;;;;;;4.43;1.70;;;;;;;;;;5008201;28;22148;-71
2021/05/28 08:53:03;;;;;;;5.03;2.25;;;;;;;;;;5010042;28;20030;-71
2021/05/28 08:55:31;;;;;;;4.47;1.50;;;;;;;;;;5011717;28;20034;-70
2021/05/28 08:58:01;;;;;;;4.97;1.80;;;;;;;;;;5011652;28;20080;-70
2021/05/28 09:00:28;;;;;;;4.15;1.48;;;;;;;;;;5008401;28;20018;-73
2021/05/28 09:02:55;;;;;;;4.93;0.98;;;;;;;;;;5004596;28;20495;-70
2021/05/28 09:05:24;;;;;;;5.90;2.28;;;;;;;;;;5008267;28;20367;-70
2021/05/28 09:07:56;;;;;;;6.97;3.22;;;;;;;;;;5011968;28;20034;-71
2021/05/28 09:10:26;;;;;;;4.30;1.85;;;;;;;;;;5011824;28;20032;-70
2021/05/28 09:12:54;;;;;;;3.80;0.93;;;;;;;;;;5010281;28;20029;-70
2021/05/28 09:15:22;;;;;;;4.57;1.40;;;;;;;;;;5011774;28;20037;-71
2021/05/28 09:17:50;;;;;;;4.13;1.35;;;;;;;;;;5010060;28;20032;-70
2021/05/28 09:20:21;;;;;;;4.38;1.20;;;;;;;;;;5011522;28;20034;-71
2021/05/28 09:22:48;;;;;;;4.03;1.48;;;;;;;;;;5011905;28;20061;-70
2021/05/28 09:25:15;;;;;;;5.88;1.77;;;;;;;;;;5011540;28;21401;-70
2021/05/28 09:27:50;;;;;;;6.13;1.27;;;;;;;;;;5010327;28;20498;-71
2021/05/28 09:30:18;;;;;;;2.92;1.20;;;;;;;;;;5011356;28;20109;-70
2021/05/28 09:32:47;;;;;;;6.47;2.28;;;;;;;;;;5011118;28;20022;-70
2021/05/28 09:35:15;;;;;;;4.45;1.10;;;;;;;;;;5011752;28;20033;-70
2021/05/28 09:37:47;;;;;;;3.92;1.45;;;;;;;;;;5011576;28;20479;-71
2021/05/28 09:40:18;;;;;;;6.22;1.55;;;;;;;;;;5011416;28;20109;-71
2021/05/28 09:42:57;;;;;;;5.70;1.48;;;;;;;;;;5009739;28;20018;-70
2021/05/28 09:45:45;;;;;;;6.10;1.17;;;;;;;;;;5014830;28;20030;-71
2021/05/28 09:48:23;;;;;;;3.97;1.58;;;;;;;;;;4995589;28;20022;-71
2021/05/28 09:50:52;;;;;;;5.18;2.63;;;;;;;;;;5004738;28;20029;-71
2021/05/28 09:53:30;;;;;;;4.30;1.45;;;;;;;;;;5003071;28;20033;-71
2021/05/28 09:55:58;;;;;;;2.88;1.48;;;;;;;;;;5011019;28;20046;-71
2021/05/28 09:58:25;;;;;;;3.33;1.20;;;;;;;;;;5014506;28;20037;-70
2021/05/28 10:00:53;;;;;;;3.15;1.00;;;;;;;;;;5014789;28;20492;-71
2021/05/28 10:03:27;;;;;;;4.75;1.48;;;;;;;;;;5014728;28;20037;-71
2021/05/28 10:05:56;;;;;;;4.45;1.08;;;;;;;;;;5014207;28;20068;-71
2021/05/28 10:08:25;;;;;;;4.60;0.90;;;;;;;;;;5014484;28;20099;-71
2021/05/28 10:10:53;;;;;;;5.00;0.88;;;;;;;;;;5013579;28;20039;-71
2021/05/28 10:13:21;;;;;;;5.55;1.35;;;;;;;;;;5014803;28;20116;-71
2021/05/28 10:15:52;;;;;;;4.63;2.30;;;;;;;;;;5014646;28;20049;-71
2021/05/28 10:18:20;;;;;;;6.78;1.50;;;;;;;;;;5014849;28;20034;-71
2021/05/28 10:20:49;;;;;;;4.50;1.17;;;;;;;;;;5014902;28;20050;-71
2021/05/28 10:23:17;;;;;;;4.93;0.73;;;;;;;;;;5014318;28;20105;-71
2021/05/28 10:25:45;;;;;;;3.05;1.13;;;;;;;;;;5013574;28;20040;-71
2021/05/28 10:28:19;;;;;;;4.40;1.00;;;;;;;;;;5014432;28;20026;-71
2021/05/28 10:30:47;;;;;;;3.03;0.70;;;;;;;;;;5012688;28;20050;-70
2021/05/28 10:33:16;;;;;;;4.93;1.58;;;;;;;;;;5013862;28;20022;-71
2021/05/28 10:35:46;;;;;;;5.78;0.85;;;;;;;;;;5013828;28;20394;-71
2021/05/28 10:38:32;;;;;;;5.93;1.63;;;;;;;;;;5014573;28;20439;-71
2021/05/28 10:41:08;;;;;;;2.63;1.00;;;;;;;;;;5012721;28;20038;-71
2021/05/28 10:43:38;;;;;;;3.38;0.90;;;;;;;;;;5013223;28;20125;-71
2021/05/28 10:46:05;;;;;;;6.68;1.30;;;;;;;;;;5013835;28;20026;-71
2021/05/28 10:48:39;;;;;;;6.22;1.10;;;;;;;;;;5011681;28;20057;-71
2021/05/28 10:51:06;;;;;;;4.47;1.45;;;;;;;;;;5006042;28;20463;-71
2021/05/28 10:53:33;;;;;;;4.55;1.60;;;;;;;;;;5012139;28;20430;-71
2021/05/28 10:56:01;;;;;;;5.07;0.90;;;;;;;;;;5013699;28;20044;-74
2021/05/28 10:58:47;;;;;;;4.93;0.85;;;;;;;;;;5012906;28;20390;-70
2021/05/28 11:01:32;;;;;;;7.75;1.02;;;;;;;;;;5006103;28;20100;-70
2021/05/28 11:04:03;;;;;;;3.90;0.60;;;;;;;;;;5013835;28;20048;-71
2021/05/28 11:06:34;;;;;;;3.47;0.98;;;;;;;;;;5009739;28;20038;-71
2021/05/28 11:09:06;;;;;;;3.70;0.80;;;;;;;;;;5013298;28;20029;-71
2021/05/28 11:11:42;;;;;;;3.10;0.75;;;;;;;;;;5012787;28;20022;-71
2021/05/28 11:14:10;;;;;;;3.47;0.50;;;;;;;;;;5013119;28;20029;-71
2021/05/28 11:16:52;;;;;;;5.63;0.45;;;;;;;;;;5012000;28;20038;-71
2021/05/28 11:19:30;;;;;;;3.05;1.30;;;;;;;;;;5011907;28;20018;-70
2021/05/28 11:21:58;;;;;;;4.47;1.20;;;;;;;;;;5010392;28;20523;-70
2021/05/28 11:24:43;;;;;;;3.70;1.20;;;;;;;;;;5011443;28;20026;-72
2021/05/28 11:27:25;;;;;;;4.60;0.90;;;;;;;;;;5012512;28;20033;-71
2021/05/28 11:30:04;;;;;;;3.28;0.50;;;;;;;;;;5012562;28;20026;-70
2021/05/28 11:32:32;;;;;;;4.55;0.60;;;;;;;;;;5009865;28;20060;-70
2021/05/28 11:35:16;;;;;;;2.22;0.63;;;;;;;;;;5013194;28;20057;-71
2021/05/28 11:38:04;;;;;;;4.47;1.05;;;;;;;;;;5007888;28;20526;-70
2021/05/28 11:40:39;;;;;;;7.82;0.80;;;;;;;;;;5003852;28;20030;-70
2021/05/28 11:43:19;;;;;;;4.25;0.80;;;;;;;;;;5008916;28;20041;-71
2021/05/28 11:45:48;;;;;;;4.55;0.95;;;;;;;;;;5012040;28;20022;-70
2021/05/28 11:48:17;;;;;;;3.35;0.88;;;;;;;;;;5009851;28;20026;-70
2021/05/28 11:51:02;;;;;;;2.95;0.80;;;;;;;;;;5011227;28;20104;-70
2021/05/28 11:53:33;;;;;;;5.70;0.82;;;;;;;;;;5006464;28;20057;-70
2021/05/28 11:56:02;;;;;;;3.38;0.80;;;;;;;;;;5006208;28;20042;-70
2021/05/28 11:58:32;;;;;;;4.78;1.00;;;;;;;;;;5009726;28;20114;-70
2021/05/28 12:01:00;;;;;;;2.10;0.82;;;;;;;;;;5010842;28;20029;-72
2021/05/28 12:03:27;;;;;;;3.08;0.70;;;;;;;;;;5011464;28;20021;-70
2021/05/28 12:05:55;;;;;;;8.05;1.15;;;;;;;;;;5008416;28;20034;-71
2021/05/28 12:08:29;;;;;;;5.60;1.83;;;;;;;;;;5010395;28;20121;-70
2021/05/28 12:11:00;;;;;;;3.03;0.88;;;;;;;;;;5009451;28;20029;-70
2021/05/28 12:13:28;;;;;;;4.05;1.00;;;;;;;;;;5008667;28;20025;-71
2021/05/28 12:15:58;;;;;;;6.35;0.80;;;;;;;;;;5009989;28;20080;-71
2021/05/28 12:18:36;;;;;;;3.30;0.68;;;;;;;;;;5010511;28;20025;-71
2021/05/28 12:21:05;;;;;;;3.45;0.70;;;;;;;;;;5010426;28;20084;-71
2021/05/28 12:23:33;;;;;;;4.72;0.88;;;;;;;;;;5010694;28;20052;-71
2021/05/28 12:26:07;;;;;;;4.68;1.13;;;;;;;;;;5008806;28;20037;-71
2021/05/28 12:28:35;;;;;;;3.35;0.73;;;;;;;;;;5009668;28;20018;-70
2021/05/28 12:31:03;;;;;;;2.83;0.95;;;;;;;;;;5009849;28;20080;-70
2021/05/28 12:33:31;;;;;;;2.85;0.98;;;;;;;;;;5009317;28;21080;-71
2021/05/28 12:36:03;;;;;;;9.60;1.63;;;;;;;;;;5010305;28;20029;-70
2021/05/28 12:38:38;;;;;;;8.38;1.00;;;;;;;;;;5007966;28;20499;-71
2021/05/28 12:41:06;;;;;;;5.47;0.73;;;;;;;;;;5007147;28;20101;-71
2021/05/28 12:43:34;;;;;;;3.88;1.05;;;;;;;;;;5011226;28;20049;-71
2021/05/28 12:46:01;;;;;;;2.88;0.82;;;;;;;;;;5007910;28;20026;-71
2021/05/28 12:48:45;;;;;;;5.20;1.05;;;;;;;;;;5008846;28;20110;-71
2021/05/28 12:51:13;;;;;;;3.58;1.00;;;;;;;;;;5010732;28;20053;-71
2021/05/28 12:53:42;;;;;;;7.50;0.77;;;;;;;;;;5010109;28;20049;-70
2021/05/28 12:56:10;;;;;;;4.35;0.95;;;;;;;;;;5009480;28;20491;-71
2021/05/28 12:58:41;;;;;;;5.97;0.75;;;;;;;;;;5009043;28;20037;-70
2021/05/28 13:01:09;;;;;;;3.25;1.25;;;;;;;;;;5010016;28;20378;-70
2021/05/28 13:03:38;;;;;;;3.70;1.10;;;;;;;;;;5010103;28;20108;-70
2021/05/28 13:06:24;;;;;;;4.78;1.00;;;;;;;;;;5009665;28;20029;-71
2021/05/28 13:08:57;;;;;;;9.10;1.00;;;;;;;;;;5010275;28;20030;-70
2021/05/28 13:11:24;;;;;;;4.18;0.80;;;;;;;;;;5010572;28;20102;-70
2021/05/28 13:13:52;;;;;;;5.43;1.00;;;;;;;;;;5009846;28;20092;-70
2021/05/28 13:16:26;;;;;;;4.43;0.90;;;;;;;;;;5009625;28;20517;-71
2021/05/28 13:18:54;;;;;;;7.22;0.90;;;;;;;;;;5014773;28;20037;-71
2021/05/28 13:21:21;;;;;;;3.80;0.85;;;;;;;;;;5013500;28;20033;-71
2021/05/28 13:23:49;;;;;;;4.45;0.60;;;;;;;;;;5012536;28;20426;-70
2021/05/28 13:26:17;;;;;;;6.40;1.48;;;;;;;;;;5013128;28;20021;-71
2021/05/28 13:28:46;;;;;;;6.13;0.70;;;;;;;;;;5013917;28;20026;-70
2021/05/28 13:31:15;;;;;;;4.50;0.70;;;;;;;;;;5013986;28;20022;-70
2021/05/28 13:33:42;;;;;;;3.08;0.75;;;;;;;;;;5012123;28;20029;-70
2021/05/28 13:36:14;;;;;;;4.90;0.88;;;;;;;;;;5011006;28;20035;-70
2021/05/28 13:38:44;;;;;;;3.63;1.33;;;;;;;;;;5010047;28;20472;-70
2021/05/28 13:41:31;;;;;;;3.38;0.80;;;;;;;;;;5012150;28;20040;-71
2021/05/28 13:43:58;;;;;;;7.57;1.02;;;;;;;;;;5013406;28;20509;-71
2021/05/28 13:46:26;;;;;;;5.63;1.13;;;;;;;;;;5013014;28;20042;-70
2021/05/28 13:48:53;;;;;;;5.22;1.40;;;;;;;;;;5013037;28;20022;-70
2021/05/28 13:51:20;;;;;;;6.93;1.58;;;;;;;;;;5012827;28;20025;-70
2021/05/28 13:53:48;;;;;;;4.07;0.70;;;;;;;;;;5013137;28;20057;-70
2021/05/28 13:56:15;;;;;;;4.13;0.90;;;;;;;;;;5012686;28;20064;-70
2021/05/28 13:58:43;;;;;;;6.57;1.55;;;;;;;;;;5012400;28;20387;-71
2021/05/28 14:01:11;;;;;;;4.03;1.10;;;;;;;;;;5012301;28;20118;-71
2021/05/28 14:03:38;;;;;;;5.55;0.73;;;;;;;;;;5013018;28;20022;-71
2021/05/28 14:06:05;;;;;;;5.80;1.02;;;;;;;;;;5013593;28;20167;-70
2021/05/28 14:08:32;;;;;;;6.10;1.42;;;;;;;;;;5011927;28;20071;-71
2021/05/28 14:11:00;;;;;;;4.20;0.88;;;;;;;;;;5011983;28;20100;-71
2021/05/28 14:13:29;;;;;;;5.45;1.33;;;;;;;;;;5012564;28;20040;-70
2021/05/28 14:15:56;;;;;;;7.10;1.23;;;;;;;;;;5011103;28;20156;-70
2021/05/28 14:18:23;;;;;;;5.40;1.10;;;;;;;;;;5012791;28;20014;-71
2021/05/28 14:20:51;;;;;;;3.63;1.10;;;;;;;;;;5011655;28;20025;-71
2021/05/28 14:23:19;;;;;;;4.95;1.08;;;;;;;;;;5013575;28;20425;-70
2021/05/28 14:25:46;;;;;;;5.35;1.23;;;;;;;;;;5009748;28;20034;-71
2021/05/28 14:28:13;;;;;;;6.07;1.45;;;;;;;;;;5012024;28;20018;-70
2021/05/28 14:30:41;;;;;;;7.28;1.50;;;;;;;;;;5011558;28;20014;-70
2021/05/28 14:33:08;;;;;;;4.63;1.15;;;;;;;;;;5010832;28;20058;-71
2021/05/28 14:35:35;;;;;;;6.53;1.23;;;;;;;;;;5013788;28;20036;-71
2021/05/28 14:38:03;;;;;;;7.35;1.17;;;;;;;;;;5012473;28;20400;-71
2021/05/28 14:40:30;;;;;;;3.60;0.95;;;;;;;;;;5014232;28;20025;-70
2021/05/28 14:42:57;;;;;;;6.60;0.90;;;;;;;;;;5012800;28;20045;-70
2021/05/28 14:45:25;;;;;;;4.85;0.95;;;;;;;;;;5013141;28;20053;-71
2021/05/28 14:47:52;;;;;;;4.35;1.00;;;;;;;;;;5013716;28;20026;-70
2021/05/28 14:50:19;;;;;;;4.10;1.05;;;;;;;;;;5012686;28;20048;-71
2021/05/28 14:52:47;;;;;;;3.00;0.57;;;;;;;;;;5012824;28;20018;-71